createdAt,value
2023-01-20T00:01:27.991Z,22.40
2023-01-20T00:04:00.656Z,23.57
2023-01-20T00:06:31.899Z,21.45
2023-01-20T00:09:04.890Z,23.35
2023-01-20T00:11:36.024Z,23.45
2023-01-20T00:14:06.963Z,24.55
2023-01-20T00:16:37.790Z,22.70
2023-01-20T00:19:08.863Z,21.52
2023-01-20T00:21:39.974Z,21.33
2023-01-20T00:24:11.041Z,19.67
2023-01-20T00:26:41.833Z,18.00
2023-01-20T00:29:12.851Z,23.77
2023-01-20T00:31:43.903Z,22.27
2023-01-20T00:34:14.762Z,21.82
2023-01-20T00:36:45.597Z,23.87
2023-01-20T00:39:16.434Z,22.73
2023-01-20T00:41:47.182Z,16.70
2023-01-20T00:44:17.990Z,18.77
2023-01-20T00:46:49.333Z,17.42
2023-01-20T00:49:20.058Z,20.20
2023-01-20T00:51:50.736Z,21.77
2023-01-20T00:54:21.761Z,15.50
2023-01-20T00:56:52.541Z,25.90
2023-01-20T00:59:23.224Z,22.60
2023-01-20T01:01:54.440Z,15.15
2023-01-20T01:04:26.249Z,18.60
2023-01-20T01:06:57.019Z,22.45
2023-01-20T01:09:27.809Z,15.40
2023-01-20T01:11:58.601Z,20.12
2023-01-20T01:14:29.476Z,19.42
2023-01-20T01:17:00.274Z,19.07
2023-01-20T01:19:31.122Z,20.43
2023-01-20T01:22:01.775Z,14.60
2023-01-20T01:24:32.464Z,16.10
2023-01-20T01:27:04.645Z,18.35
2023-01-20T01:29:35.422Z,13.90
2023-01-20T01:32:06.455Z,13.70
2023-01-20T01:34:37.511Z,12.25
2023-01-20T01:37:09.140Z,14.47
2023-01-20T01:39:39.906Z,14.40
2023-01-20T01:42:18.156Z,14.38
2023-01-20T01:45:14.437Z,12.60
2023-01-20T01:50:30.972Z,12.13
2023-01-20T01:53:02.567Z,14.87
2023-01-20T01:55:35.775Z,14.50
2023-01-20T01:58:09.184Z,14.53
2023-01-20T02:00:41.213Z,13.88
2023-01-20T02:03:13.283Z,14.10
2023-01-20T02:05:46.029Z,11.55
2023-01-20T02:08:17.530Z,16.02
2023-01-20T02:10:48.736Z,14.18
2023-01-20T02:13:20.020Z,12.58
2023-01-20T02:16:03.765Z,62.38
2023-01-20T02:18:40.431Z,13.83
2023-01-20T02:21:25.800Z,16.15
2023-01-20T02:24:24.110Z,17.70
2023-01-20T02:27:06.460Z,14.73
2023-01-20T02:29:51.480Z,14.38
2023-01-20T02:32:49.458Z,18.25
2023-01-20T02:35:28.490Z,11.53
2023-01-20T02:38:10.574Z,13.15
2023-01-20T02:40:52.631Z,10.72
2023-01-20T02:43:42.709Z,11.25
2023-01-20T02:46:15.991Z,10.95
2023-01-20T02:49:23.210Z,11.12
2023-01-20T02:52:03.132Z,13.10
2023-01-20T02:54:35.905Z,10.53
2023-01-20T02:57:09.828Z,16.52
2023-01-20T02:59:43.504Z,11.12
2023-01-20T03:02:20.820Z,14.20
2023-01-20T03:04:57.851Z,14.70
2023-01-20T03:07:31.962Z,13.03
2023-01-20T03:10:05.105Z,11.40
2023-01-20T03:12:54.466Z,14.00
2023-01-20T03:15:29.001Z,11.45
2023-01-20T03:18:00.995Z,12.95
2023-01-20T03:20:32.963Z,10.55
2023-01-20T03:23:03.816Z,10.72
2023-01-20T03:25:36.047Z,12.33
2023-01-20T03:28:07.087Z,11.15
2023-01-20T03:30:46.459Z,9.50
2023-01-20T03:33:19.935Z,11.05
2023-01-20T03:35:52.390Z,17.32
2023-01-20T03:38:23.728Z,11.12
2023-01-20T03:41:06.226Z,13.55
2023-01-20T03:43:43.409Z,11.05
2023-01-20T03:46:20.698Z,12.10
2023-01-20T03:48:58.892Z,11.83
2023-01-20T03:51:39.080Z,14.65
2023-01-20T03:54:12.403Z,10.70
2023-01-20T03:56:56.102Z,10.10
2023-01-20T03:59:28.716Z,13.03
2023-01-20T04:02:03.020Z,9.43
2023-01-20T04:04:37.072Z,13.85
2023-01-20T04:07:12.809Z,8.25
2023-01-20T04:09:51.898Z,12.25
2023-01-20T04:12:23.067Z,10.43
2023-01-20T04:14:54.599Z,9.78
2023-01-20T04:17:32.786Z,16.15
2023-01-20T04:20:10.257Z,13.98
2023-01-20T04:22:55.546Z,10.55
2023-01-20T04:25:35.183Z,9.33
2023-01-20T04:28:06.271Z,13.80
2023-01-20T04:30:47.851Z,11.30
2023-01-20T04:33:22.897Z,15.30
2023-01-20T04:35:54.234Z,8.88
2023-01-20T04:38:25.940Z,12.43
2023-01-20T04:40:57.055Z,10.48
2023-01-20T04:43:28.240Z,11.50
2023-01-20T04:45:59.394Z,9.48
2023-01-20T04:48:32.789Z,12.60
2023-01-20T04:51:06.598Z,9.73
2023-01-20T04:53:37.471Z,8.83
2023-01-20T04:56:16.494Z,8.90
2023-01-20T04:58:48.736Z,9.85
2023-01-20T05:01:19.882Z,7.47
2023-01-20T05:03:51.164Z,8.58
2023-01-20T05:06:22.040Z,12.53
2023-01-20T05:08:52.796Z,8.10
2023-01-20T05:11:23.948Z,10.70
2023-01-20T05:13:55.044Z,11.93
2023-01-20T05:16:26.997Z,10.53
2023-01-20T05:18:57.670Z,11.38
2023-01-20T05:21:28.481Z,8.55
2023-01-20T05:24:00.085Z,8.43
2023-01-20T05:26:31.279Z,9.85
2023-01-20T05:29:02.105Z,10.95
2023-01-20T05:31:36.113Z,10.38
2023-01-20T05:34:06.850Z,9.75
2023-01-20T05:36:37.618Z,8.40
2023-01-20T05:39:08.962Z,10.63
2023-01-20T05:41:39.892Z,9.58
2023-01-20T05:44:10.860Z,7.72
2023-01-20T05:46:42.312Z,9.35
2023-01-20T05:49:16.946Z,10.63
2023-01-20T05:51:48.488Z,8.35
2023-01-20T05:54:19.926Z,9.43
2023-01-20T05:56:51.952Z,14.15
2023-01-20T05:59:23.121Z,10.55
2023-01-20T06:01:54.590Z,7.35
2023-01-20T06:04:25.807Z,8.90
2023-01-20T06:06:57.886Z,9.75
2023-01-20T06:09:29.379Z,8.80
2023-01-20T06:12:00.286Z,9.38
2023-01-20T06:14:31.783Z,8.63
2023-01-20T06:17:03.027Z,6.83
2023-01-20T06:19:34.454Z,8.68
2023-01-20T06:22:05.504Z,8.03
2023-01-20T06:24:36.418Z,11.90
2023-01-20T06:27:21.730Z,8.38
2023-01-20T06:29:53.196Z,8.90
2023-01-20T06:32:34.590Z,10.35
2023-01-20T06:35:05.827Z,8.65
2023-01-20T06:37:39.128Z,9.15
2023-01-20T06:40:11.911Z,9.35
2023-01-20T06:42:44.082Z,10.75
2023-01-20T06:45:17.551Z,7.17
2023-01-20T06:47:52.519Z,12.00
2023-01-20T06:50:23.397Z,6.58
2023-01-20T06:52:55.616Z,8.58
2023-01-20T06:55:27.898Z,6.62
2023-01-20T06:57:58.797Z,9.60
2023-01-20T07:00:30.058Z,9.93
2023-01-20T07:06:05.598Z,8.50
2023-01-20T07:08:36.691Z,27.58
2023-01-20T07:11:08.226Z,18.27
2023-01-20T07:13:39.891Z,10.95
2023-01-20T07:16:16.033Z,7.60
2023-01-20T07:18:53.182Z,7.42
2023-01-20T07:21:26.512Z,7.55
2023-01-20T07:23:57.848Z,6.90
2023-01-20T07:26:35.153Z,8.73
2023-01-20T07:29:06.598Z,6.87
2023-01-20T07:31:37.778Z,9.88
2023-01-20T07:34:09.222Z,5.25
2023-01-20T07:36:40.569Z,7.33
2023-01-20T07:39:16.595Z,6.60
2023-01-20T07:41:49.018Z,7.27
2023-01-20T07:44:20.030Z,7.80
2023-01-20T07:46:52.709Z,5.72
2023-01-20T07:49:23.852Z,7.50
2023-01-20T07:51:54.850Z,5.65
2023-01-20T07:54:25.704Z,7.12
2023-01-20T07:56:56.476Z,6.50
2023-01-20T07:59:28.475Z,4.70
2023-01-20T08:01:59.298Z,5.03
2023-01-20T08:04:30.770Z,5.58
2023-01-20T08:07:02.175Z,7.95
2023-01-20T08:09:32.953Z,6.83
2023-01-20T08:12:03.805Z,6.85
2023-01-20T08:14:37.627Z,6.17
2023-01-20T08:17:07.417Z,4.58
2023-01-20T08:19:38.205Z,6.45
2023-01-20T08:22:09.753Z,6.10
2023-01-20T08:24:40.695Z,6.72
2023-01-20T08:27:11.937Z,9.25
2023-01-20T08:29:42.807Z,7.37
2023-01-20T08:32:13.672Z,6.53
2023-01-20T08:34:44.512Z,8.65
2023-01-20T08:37:15.652Z,5.75
2023-01-20T08:39:46.836Z,8.20
2023-01-20T08:42:17.559Z,7.50
2023-01-20T08:44:48.859Z,5.47
2023-01-20T08:47:20.073Z,9.10
2023-01-20T08:49:51.859Z,11.55
2023-01-20T08:52:24.932Z,8.05
2023-01-20T08:54:55.814Z,7.97
2023-01-20T08:57:28.515Z,7.58
2023-01-20T08:59:59.306Z,7.58
2023-01-20T09:02:35.006Z,7.03
2023-01-20T09:05:05.711Z,11.15
2023-01-20T09:07:45.448Z,9.38
2023-01-20T09:10:20.492Z,11.63
2023-01-20T09:12:51.147Z,10.32
2023-01-20T09:15:23.676Z,7.47
2023-01-20T09:17:54.329Z,10.08
2023-01-20T09:20:25.904Z,8.85
2023-01-20T09:22:57.027Z,9.13
2023-01-20T09:25:28.418Z,10.75
2023-01-20T09:28:00.499Z,9.55
2023-01-20T09:30:32.142Z,7.47
2023-01-20T09:33:03.900Z,10.65
2023-01-20T09:35:35.037Z,11.90
2023-01-20T09:38:23.732Z,5.30
2023-01-20T09:41:38.009Z,6.08
2023-01-20T09:44:23.886Z,7.90
2023-01-20T09:47:24.993Z,11.93
2023-01-20T09:50:35.421Z,5.50
2023-01-20T09:53:16.597Z,5.08
2023-01-20T09:55:59.807Z,7.05
2023-01-20T09:58:36.087Z,9.45
2023-01-20T10:01:19.369Z,8.43
2023-01-20T10:04:18.361Z,6.85
2023-01-20T10:07:07.393Z,8.68
2023-01-20T10:09:46.867Z,8.63
2023-01-20T10:12:37.904Z,7.92
2023-01-20T10:15:14.121Z,7.80
2023-01-20T10:17:53.408Z,8.25
2023-01-20T10:20:33.152Z,8.08
2023-01-20T10:23:15.480Z,8.10
2023-01-20T10:25:52.141Z,8.28
2023-01-20T10:28:30.523Z,7.08
2023-01-20T10:31:08.650Z,8.48
2023-01-20T10:33:45.812Z,11.38
2023-01-20T10:36:33.405Z,7.97
2023-01-20T10:39:31.881Z,8.35
2023-01-20T10:42:09.356Z,12.35
2023-01-20T10:44:44.167Z,10.32
2023-01-20T10:47:21.003Z,15.43
2023-01-20T10:49:54.305Z,20.92
2023-01-20T10:52:42.617Z,19.37
2023-01-20T10:55:22.347Z,13.90
2023-01-20T10:57:55.849Z,13.03
2023-01-20T11:00:34.192Z,12.93
2023-01-20T11:03:10.933Z,14.80
2023-01-20T11:05:43.591Z,15.35
2023-01-20T11:08:19.564Z,13.10
2023-01-20T11:10:52.506Z,14.27
2023-01-20T11:13:44.299Z,12.95
2023-01-20T11:16:22.340Z,15.43
2023-01-20T11:19:05.403Z,16.05
2023-01-20T11:21:39.024Z,15.50
2023-01-20T11:24:29.119Z,15.38
2023-01-20T11:27:11.224Z,14.68
2023-01-20T11:29:45.002Z,13.35
2023-01-20T11:32:36.456Z,17.45
2023-01-20T11:35:25.595Z,13.90
2023-01-20T11:37:56.824Z,18.57
2023-01-20T11:40:34.542Z,15.55
2023-01-20T11:43:05.487Z,15.03
2023-01-20T11:45:38.280Z,14.73
2023-01-20T11:48:17.824Z,16.30
2023-01-20T11:51:00.061Z,14.33
2023-01-20T11:53:38.465Z,15.15
2023-01-20T11:56:21.226Z,13.70
2023-01-20T11:59:00.262Z,16.42
2023-01-20T12:01:53.120Z,15.35
2023-01-20T12:04:38.197Z,14.55
2023-01-20T12:07:12.081Z,16.12
2023-01-20T12:09:48.145Z,13.08
2023-01-20T12:12:22.143Z,17.10
2023-01-20T12:15:01.298Z,16.25
2023-01-20T12:18:06.633Z,15.15
2023-01-20T12:20:56.964Z,22.17
2023-01-20T12:23:53.361Z,21.07
2023-01-20T12:26:26.013Z,19.77
2023-01-20T12:29:05.479Z,24.25
2023-01-20T12:31:36.525Z,35.92
2023-01-20T12:34:10.859Z,26.60
2023-01-20T12:36:56.257Z,28.73
2023-01-20T12:39:33.367Z,28.23
2023-01-20T12:42:24.733Z,24.90
2023-01-20T12:45:00.898Z,24.25
2023-01-20T12:47:46.018Z,25.23
2023-01-20T12:50:19.353Z,24.65
2023-01-20T12:53:11.895Z,25.27
2023-01-20T12:55:58.405Z,27.05
2023-01-20T13:01:38.859Z,24.67
2023-01-20T13:04:34.423Z,27.58
2023-01-20T13:07:13.368Z,28.05
2023-01-20T13:09:50.893Z,24.20
2023-01-20T13:12:38.815Z,21.75
2023-01-20T13:15:27.322Z,24.27
2023-01-20T13:18:20.334Z,25.80
2023-01-20T13:20:53.036Z,23.98
2023-01-20T13:23:29.491Z,25.00
2023-01-20T13:26:04.129Z,22.58
2023-01-20T13:28:37.211Z,24.05
2023-01-20T13:31:26.760Z,26.95
2023-01-20T13:33:58.824Z,33.20
2023-01-20T13:36:29.825Z,25.60
2023-01-20T13:39:34.854Z,25.02
2023-01-20T13:42:06.976Z,25.43
2023-01-20T13:44:42.660Z,22.22
2023-01-20T13:47:15.468Z,29.80
2023-01-20T13:49:58.226Z,28.80
2023-01-20T13:52:53.966Z,25.12
2023-01-20T13:55:46.537Z,25.27
2023-01-20T13:58:19.115Z,26.65
2023-01-20T14:00:52.813Z,26.02
2023-01-20T14:03:26.067Z,26.97
2023-01-20T14:06:17.510Z,27.67
2023-01-20T14:08:52.777Z,23.12
2023-01-20T14:11:26.273Z,23.18
2023-01-20T14:14:07.048Z,26.02
2023-01-20T14:16:40.744Z,24.50
2023-01-20T14:19:27.895Z,25.92
2023-01-20T14:22:00.526Z,26.45
2023-01-20T14:24:33.736Z,29.55
2023-01-20T14:27:25.058Z,28.00
2023-01-20T14:29:58.718Z,28.90
2023-01-20T14:32:37.175Z,25.85
2023-01-20T14:35:28.887Z,25.97
2023-01-20T14:38:01.085Z,28.27
2023-01-20T14:40:38.339Z,25.32
2023-01-20T14:43:23.635Z,24.63
2023-01-20T14:45:55.552Z,24.85
2023-01-20T14:48:34.508Z,22.48
2023-01-20T14:50:59.196Z,26.05
2023-01-20T14:53:30.244Z,26.33
2023-01-20T14:56:04.980Z,26.00
2023-01-20T14:58:37.348Z,23.62
2023-01-20T15:01:09.507Z,26.23
2023-01-20T15:03:40.443Z,28.60
2023-01-20T15:06:23.072Z,27.05
2023-01-20T15:09:06.058Z,28.38
2023-01-20T15:11:30.725Z,31.52
2023-01-20T15:14:07.001Z,29.63
2023-01-20T15:16:47.608Z,30.80
2023-01-20T15:19:27.137Z,26.75
2023-01-20T15:22:00.299Z,25.88
2023-01-20T15:24:42.489Z,27.60
2023-01-20T15:27:28.407Z,30.32
2023-01-20T15:32:33.026Z,32.83
2023-01-20T15:35:12.090Z,28.15
2023-01-20T15:37:47.952Z,28.35
2023-01-20T15:40:25.170Z,26.70
2023-01-20T15:42:57.582Z,28.52
2023-01-20T15:45:28.580Z,30.97
2023-01-20T15:47:59.518Z,40.03
2023-01-20T15:50:32.380Z,31.15
2023-01-20T15:53:04.689Z,32.10
2023-01-20T15:55:38.039Z,31.17
2023-01-20T15:58:13.810Z,29.10
2023-01-20T16:00:44.907Z,28.47
2023-01-20T16:03:15.671Z,33.18
2023-01-20T16:05:47.127Z,33.67
2023-01-20T16:08:23.306Z,32.58
2023-01-20T16:10:54.322Z,34.27
2023-01-20T16:13:25.048Z,42.65
2023-01-20T16:15:55.844Z,44.13
2023-01-20T16:18:26.930Z,33.78
2023-01-20T16:20:59.406Z,36.83
2023-01-20T16:23:30.403Z,36.88
2023-01-20T16:26:01.360Z,34.70
2023-01-20T16:28:32.222Z,38.38
2023-01-20T16:31:03.770Z,39.75
2023-01-20T16:33:34.634Z,32.25
2023-01-20T16:36:23.499Z,43.45
2023-01-20T16:38:55.126Z,39.45
2023-01-20T16:41:28.683Z,44.10
2023-01-20T16:44:04.607Z,41.25
2023-01-20T16:46:36.145Z,37.67
2023-01-20T16:49:07.074Z,38.17
2023-01-20T16:51:37.890Z,34.90
2023-01-20T16:54:08.929Z,38.20
2023-01-20T16:56:40.928Z,37.15
2023-01-20T16:59:12.414Z,33.40
2023-01-20T17:01:43.392Z,33.13
2023-01-20T17:04:14.078Z,33.92
2023-01-20T17:06:45.904Z,32.10
2023-01-20T17:09:16.852Z,35.50
2023-01-20T17:11:47.562Z,33.53
2023-01-20T17:14:18.268Z,31.50
2023-01-20T17:16:49.188Z,32.42
2023-01-20T17:19:20.695Z,30.40
2023-01-20T17:21:52.365Z,30.92
2023-01-20T17:24:23.257Z,29.57
2023-01-20T17:26:54.541Z,32.23
2023-01-20T17:29:25.250Z,31.57
2023-01-20T17:31:56.045Z,32.15
2023-01-20T17:34:26.801Z,30.37
2023-01-20T17:36:57.554Z,30.10
2023-01-20T17:39:28.275Z,30.10
2023-01-20T17:41:58.997Z,31.33
2023-01-20T17:44:29.832Z,31.68
2023-01-20T17:47:01.009Z,31.57
2023-01-20T17:49:31.903Z,30.32
2023-01-20T17:52:03.072Z,32.67
2023-01-20T17:54:39.793Z,31.93
2023-01-20T17:57:10.495Z,30.85
2023-01-20T17:59:42.793Z,34.03
2023-01-20T18:02:18.271Z,32.08
2023-01-20T18:04:49.020Z,29.10
2023-01-20T18:07:19.834Z,32.45
2023-01-20T18:09:51.075Z,32.50
2023-01-20T18:12:22.551Z,30.12
2023-01-20T18:14:55.210Z,31.57
2023-01-20T18:17:26.325Z,30.30
2023-01-20T18:19:57.404Z,34.53
2023-01-20T18:22:28.100Z,33.25
2023-01-20T18:25:00.280Z,29.85
2023-01-20T18:27:31.290Z,31.37
2023-01-20T18:30:02.075Z,32.25
2023-01-20T18:32:32.864Z,35.15
2023-01-20T18:35:03.632Z,34.58
2023-01-20T18:37:34.455Z,35.03
2023-01-20T18:40:05.746Z,34.45
2023-01-20T18:42:36.459Z,31.27
2023-01-20T18:45:07.692Z,32.73
2023-01-20T18:47:38.391Z,36.28
2023-01-20T18:50:10.099Z,30.60
2023-01-20T18:52:40.802Z,34.27
2023-01-20T18:55:18.937Z,35.03
2023-01-20T18:57:49.670Z,33.15
2023-01-20T19:00:21.745Z,34.60
2023-01-20T19:02:55.599Z,35.83
2023-01-20T19:05:26.411Z,32.83
2023-01-20T19:07:57.428Z,35.73
2023-01-20T19:10:28.359Z,29.80
2023-01-20T19:12:59.507Z,31.93
2023-01-20T19:15:31.682Z,35.03
2023-01-20T19:18:03.148Z,30.25
2023-01-20T19:20:33.926Z,33.85
2023-01-20T19:23:04.591Z,32.53
2023-01-20T19:25:35.272Z,37.58
2023-01-20T19:28:07.684Z,35.08
2023-01-20T19:30:39.478Z,33.08
2023-01-20T19:33:11.725Z,40.73
2023-01-20T19:35:42.431Z,33.55
2023-01-20T19:38:13.093Z,38.25
2023-01-20T19:40:43.791Z,33.33
2023-01-20T19:43:14.482Z,39.25
2023-01-20T19:45:46.231Z,34.13
2023-01-20T19:48:17.344Z,37.67
2023-01-20T19:50:48.320Z,32.53
2023-01-20T19:53:19.132Z,35.73
2023-01-20T19:55:50.201Z,36.90
2023-01-20T19:58:20.916Z,33.38
2023-01-20T20:00:51.607Z,31.82
2023-01-20T20:03:22.822Z,36.15
2023-01-20T20:05:53.645Z,32.88
2023-01-20T20:08:24.324Z,35.48
2023-01-20T20:10:55.067Z,37.83
2023-01-20T20:13:25.922Z,33.75
2023-01-20T20:16:07.816Z,38.20
2023-01-20T20:18:39.764Z,33.70
2023-01-20T20:21:11.704Z,33.02
2023-01-20T20:23:42.540Z,35.52
2023-01-20T20:26:16.451Z,34.83
2023-01-20T20:28:48.624Z,35.30
2023-01-20T20:31:19.746Z,35.23
2023-01-20T20:33:50.711Z,34.43
2023-01-20T20:36:21.588Z,34.35
2023-01-20T20:38:54.609Z,34.10
2023-01-20T20:41:27.590Z,32.85
2023-01-20T20:43:58.712Z,37.20
2023-01-20T20:46:30.348Z,34.45
2023-01-20T20:49:02.612Z,32.55
2023-01-20T20:51:35.794Z,35.70
2023-01-20T20:54:06.735Z,31.23
2023-01-20T20:56:37.655Z,34.78
2023-01-20T20:59:08.483Z,31.68
2023-01-20T21:01:39.492Z,36.30
2023-01-20T21:04:10.586Z,33.73
2023-01-20T21:06:41.392Z,36.40
2023-01-20T21:09:12.944Z,31.85
2023-01-20T21:11:43.634Z,31.60
2023-01-20T21:14:14.451Z,30.85
2023-01-20T21:16:45.536Z,30.75
2023-01-20T21:19:16.607Z,32.93
2023-01-20T21:21:47.435Z,33.53
2023-01-20T21:24:18.373Z,31.97
2023-01-20T21:26:49.079Z,31.90
2023-01-20T21:29:20.069Z,33.13
2023-01-20T21:31:51.544Z,32.40
2023-01-20T21:34:22.749Z,30.43
2023-01-20T21:36:53.600Z,31.07
2023-01-20T21:39:26.285Z,31.70
2023-01-20T21:41:56.994Z,28.25
2023-01-20T21:44:30.696Z,30.32
2023-01-20T21:47:06.737Z,28.05
2023-01-20T21:49:55.436Z,32.38
2023-01-20T21:52:46.663Z,32.08
2023-01-20T21:55:21.172Z,30.60
2023-01-20T21:57:52.714Z,29.72
2023-01-20T22:00:24.128Z,32.00
2023-01-20T22:02:54.910Z,30.50
2023-01-20T22:05:25.699Z,32.15
2023-01-20T22:07:56.417Z,31.50
2023-01-20T22:10:27.232Z,31.50
2023-01-20T22:12:58.458Z,31.48
2023-01-20T22:15:29.180Z,27.00
2023-01-20T22:18:00.456Z,34.15
2023-01-20T22:20:31.379Z,33.30
2023-01-20T22:23:02.075Z,30.27
2023-01-20T22:25:32.782Z,27.93
2023-01-20T22:28:03.573Z,28.85
2023-01-20T22:30:34.823Z,33.58
2023-01-20T22:33:05.666Z,31.73
2023-01-20T22:35:36.606Z,27.52
2023-01-20T22:38:08.932Z,30.37
2023-01-20T22:40:39.739Z,27.50
2023-01-20T22:43:10.451Z,31.23
2023-01-20T22:45:41.673Z,29.18
2023-01-20T22:48:12.481Z,27.42
2023-01-20T22:50:43.223Z,31.35
2023-01-20T22:53:13.893Z,30.48
2023-01-20T22:56:00.551Z,33.70
2023-01-20T22:58:22.712Z,28.62
2023-01-20T23:00:54.829Z,29.32
2023-01-20T23:03:25.618Z,35.10
2023-01-20T23:06:01.407Z,29.35
2023-01-20T23:08:51.220Z,32.93
2023-01-20T23:11:23.854Z,33.28
2023-01-20T23:14:14.576Z,30.55
2023-01-20T23:16:46.109Z,30.75
2023-01-20T23:19:17.347Z,32.38
2023-01-20T23:21:48.151Z,30.37
2023-01-20T23:24:18.874Z,29.60
2023-01-20T23:26:50.577Z,32.30
2023-01-20T23:29:21.597Z,39.30
2023-01-20T23:31:52.510Z,49.00
2023-01-20T23:34:23.244Z,56.65
2023-01-20T23:36:54.157Z,36.08
2023-01-20T23:39:25.263Z,36.90
2023-01-20T23:41:56.019Z,33.15
2023-01-20T23:44:26.803Z,37.83
2023-01-20T23:46:57.481Z,39.78
2023-01-20T23:49:28.290Z,34.67
2023-01-20T23:51:58.993Z,42.78
2023-01-20T23:54:29.708Z,55.95
2023-01-20T23:57:00.415Z,58.58
2023-01-20T23:59:31.221Z,49.25
